createdAt,value
2023-01-01T00:01:42.344Z,16.72
2023-01-01T00:04:13.655Z,16.74
2023-01-01T00:06:41.702Z,16.74
2023-01-01T00:09:27.274Z,16.74
2023-01-01T00:11:55.051Z,16.73
2023-01-01T00:14:22.905Z,16.77
2023-01-01T00:16:52.148Z,16.82
2023-01-01T00:19:20.198Z,16.85
2023-01-01T00:21:47.990Z,16.87
2023-01-01T00:24:16.012Z,16.88
2023-01-01T00:26:43.845Z,16.90
2023-01-01T00:29:11.643Z,16.92
2023-01-01T00:31:39.477Z,16.94
2023-01-01T00:34:11.050Z,16.95
2023-01-01T00:36:38.960Z,16.96
2023-01-01T00:39:06.834Z,16.99
2023-01-01T00:41:34.643Z,16.98
2023-01-01T00:44:02.822Z,16.97
2023-01-01T00:46:30.649Z,16.96
2023-01-01T00:48:58.573Z,16.98
2023-01-01T00:51:31.702Z,16.99
2023-01-01T00:54:04.638Z,16.98
2023-01-01T00:56:32.453Z,16.98
2023-01-01T00:59:01.461Z,16.97
2023-01-01T01:01:30.152Z,16.99
2023-01-01T01:03:58.392Z,16.99
2023-01-01T01:06:28.027Z,16.98
2023-01-01T01:08:55.885Z,16.98
2023-01-01T01:11:26.557Z,16.98
2023-01-01T01:13:56.981Z,16.98
2023-01-01T01:16:27.422Z,16.99
2023-01-01T01:18:57.612Z,16.98
2023-01-01T01:21:28.335Z,16.95
2023-01-01T01:23:58.790Z,16.94
2023-01-01T01:26:28.052Z,16.90
2023-01-01T01:28:55.963Z,16.85
2023-01-01T01:31:25.909Z,16.81
2023-01-01T01:33:53.740Z,16.78
2023-01-01T01:36:21.743Z,16.81
2023-01-01T01:38:51.255Z,16.76
2023-01-01T01:41:27.930Z,16.74
2023-01-01T01:43:59.788Z,16.72
2023-01-01T01:46:32.745Z,16.70
2023-01-01T01:49:05.025Z,16.65
2023-01-01T01:51:37.140Z,16.62
2023-01-01T01:54:12.079Z,16.57
2023-01-01T01:56:45.492Z,16.58
2023-01-01T01:59:14.277Z,16.57
2023-01-01T02:01:42.812Z,16.57
2023-01-01T02:04:11.638Z,16.54
2023-01-01T02:06:40.364Z,16.54
2023-01-01T02:09:10.860Z,16.54
2023-01-01T02:11:38.820Z,16.50
2023-01-01T02:14:07.196Z,16.51
2023-01-01T02:16:40.773Z,16.44
2023-01-01T02:19:18.470Z,16.44
2023-01-01T02:21:57.714Z,16.40
2023-01-01T02:24:43.240Z,16.36
2023-01-01T02:27:20.139Z,16.36
2023-01-01T02:29:53.887Z,16.36
2023-01-01T02:32:26.060Z,16.34
2023-01-01T02:34:59.425Z,16.36
2023-01-01T02:37:30.382Z,16.34
2023-01-01T02:40:00.712Z,16.29
2023-01-01T02:42:30.751Z,16.24
2023-01-01T02:45:01.311Z,16.21
2023-01-01T02:47:29.118Z,16.24
2023-01-01T02:50:04.246Z,16.22
2023-01-01T02:52:57.683Z,16.09
2023-01-01T02:55:47.158Z,16.08
2023-01-01T02:58:41.578Z,16.14
2023-01-01T03:01:16.850Z,16.17
2023-01-01T03:03:57.309Z,16.15
2023-01-01T03:06:33.572Z,16.18
2023-01-01T03:09:11.465Z,16.15
2023-01-01T03:11:47.871Z,16.17
2023-01-01T03:14:22.458Z,16.18
2023-01-01T03:16:56.328Z,16.18
2023-01-01T03:19:26.523Z,16.21
2023-01-01T03:21:58.645Z,16.20
2023-01-01T03:24:31.330Z,16.18
2023-01-01T03:27:03.371Z,16.20
2023-01-01T03:29:36.059Z,16.16
2023-01-01T03:32:08.699Z,16.18
2023-01-01T03:34:41.529Z,16.21
2023-01-01T03:37:13.496Z,16.23
2023-01-01T03:39:47.369Z,16.21
2023-01-01T03:42:22.997Z,16.22
2023-01-01T03:44:53.894Z,16.23
2023-01-01T03:47:23.197Z,16.22
2023-01-01T03:49:51.378Z,16.22
2023-01-01T03:52:31.825Z,16.20
2023-01-01T03:55:07.925Z,16.19
2023-01-01T03:57:45.268Z,16.22
2023-01-01T04:00:17.911Z,16.23
2023-01-01T04:02:53.909Z,16.20
2023-01-01T04:05:23.069Z,16.22
2023-01-01T04:07:52.893Z,16.22
2023-01-01T04:10:21.543Z,16.17
2023-01-01T04:12:51.580Z,16.13
2023-01-01T04:15:20.973Z,16.11
2023-01-01T04:17:50.166Z,16.10
2023-01-01T04:20:18.646Z,16.09
2023-01-01T04:22:47.421Z,16.05
2023-01-01T04:25:15.621Z,16.04
2023-01-01T04:27:43.440Z,16.00
2023-01-01T04:30:14.627Z,15.99
2023-01-01T04:32:42.798Z,15.98
2023-01-01T04:35:13.862Z,15.99
2023-01-01T04:37:43.045Z,15.96
2023-01-01T04:40:15.490Z,15.97
2023-01-01T04:42:44.299Z,15.94
2023-01-01T04:45:15.227Z,15.91
2023-01-01T04:47:43.453Z,15.91
2023-01-01T04:50:12.716Z,15.91
2023-01-01T04:52:40.495Z,15.92
2023-01-01T04:55:08.870Z,15.90
2023-01-01T04:57:36.629Z,15.87
2023-01-01T05:00:05.474Z,15.86
2023-01-01T05:02:33.372Z,15.86
2023-01-01T05:05:01.234Z,15.86
2023-01-01T05:07:30.381Z,15.85
2023-01-01T05:09:58.171Z,15.86
2023-01-01T05:12:25.981Z,15.84
2023-01-01T05:14:53.784Z,15.81
2023-01-01T05:17:21.616Z,15.82
2023-01-01T05:19:49.386Z,15.82
2023-01-01T05:22:17.127Z,15.83
2023-01-01T05:24:47.390Z,15.81
2023-01-01T05:27:15.198Z,15.80
2023-01-01T05:29:42.998Z,15.80
2023-01-01T05:37:04.149Z,15.75
2023-01-01T05:39:31.922Z,15.74
2023-01-01T05:42:01.121Z,15.73
2023-01-01T05:44:29.122Z,15.72
2023-01-01T05:46:56.902Z,15.69
2023-01-01T05:49:24.731Z,15.69
2023-01-01T05:51:52.557Z,15.68
2023-01-01T05:54:20.387Z,15.67
2023-01-01T05:56:48.186Z,15.65
2023-01-01T05:59:17.353Z,15.62
2023-01-01T06:01:46.049Z,15.66
2023-01-01T06:04:14.650Z,15.70
2023-01-01T06:06:42.511Z,15.69
2023-01-01T06:09:11.303Z,15.71
2023-01-01T06:11:39.074Z,15.74
2023-01-01T06:14:06.858Z,15.73
2023-01-01T06:16:36.327Z,15.74
2023-01-01T06:19:04.303Z,15.77
2023-01-01T06:21:32.164Z,15.77
2023-01-01T06:24:00.783Z,15.79
2023-01-01T06:26:30.738Z,15.77
2023-01-01T06:28:59.299Z,15.76
2023-01-01T06:31:28.117Z,15.77
2023-01-01T06:33:57.351Z,15.79
2023-01-01T06:36:26.896Z,15.78
2023-01-01T06:38:58.658Z,15.80
2023-01-01T06:41:28.464Z,15.81
2023-01-01T06:43:56.912Z,15.81
2023-01-01T06:46:26.226Z,15.82
2023-01-01T06:48:56.099Z,15.82
2023-01-01T06:51:27.548Z,15.82
2023-01-01T06:53:55.829Z,15.82
2023-01-01T06:56:23.711Z,15.80
2023-01-01T06:58:51.608Z,15.83
2023-01-01T07:01:21.195Z,15.83
2023-01-01T07:03:52.378Z,15.83
2023-01-01T07:06:20.327Z,15.82
2023-01-01T07:08:49.605Z,15.80
2023-01-01T07:11:17.559Z,15.77
2023-01-01T07:13:45.803Z,15.77
2023-01-01T07:16:15.461Z,15.75
2023-01-01T07:18:43.418Z,15.74
2023-01-01T07:21:29.837Z,15.65
2023-01-01T07:24:00.346Z,15.67
2023-01-01T07:26:29.893Z,15.63
2023-01-01T07:29:05.973Z,15.59
2023-01-01T07:31:35.447Z,15.55
2023-01-01T07:34:03.395Z,15.49
2023-01-01T07:36:31.215Z,15.46
2023-01-01T07:39:00.679Z,15.45
2023-01-01T07:41:28.491Z,15.41
2023-01-01T07:43:56.502Z,15.37
2023-01-01T07:46:24.485Z,15.33
2023-01-01T07:48:52.420Z,15.29
2023-01-01T07:51:20.307Z,15.23
2023-01-01T07:53:48.088Z,15.20
2023-01-01T07:56:17.422Z,15.15
2023-01-01T07:58:45.314Z,15.17
2023-01-01T08:01:14.651Z,15.14
2023-01-01T08:03:42.927Z,15.13
2023-01-01T08:06:12.133Z,15.12
2023-01-01T08:08:40.282Z,15.08
2023-01-01T08:11:08.463Z,15.08
2023-01-01T08:13:37.885Z,15.05
2023-01-01T08:16:06.764Z,14.99
2023-01-01T08:18:34.707Z,15.01
2023-01-01T08:21:02.873Z,15.02
2023-01-01T08:23:31.535Z,15.03
2023-01-01T08:26:03.204Z,15.00
2023-01-01T08:28:31.524Z,15.00
2023-01-01T08:31:00.786Z,14.99
2023-01-01T08:33:28.656Z,14.97
2023-01-01T08:35:56.645Z,14.99
2023-01-01T08:38:24.575Z,14.96
2023-01-01T08:40:52.689Z,14.95
2023-01-01T08:43:21.034Z,14.93
2023-01-01T08:45:48.946Z,14.96
2023-01-01T08:48:18.312Z,14.93
2023-01-01T08:50:46.333Z,14.90
2023-01-01T08:53:14.151Z,14.93
2023-01-01T08:55:41.977Z,14.95
2023-01-01T08:58:09.831Z,14.97
2023-01-01T09:00:37.718Z,15.01
2023-01-01T09:03:05.988Z,15.05
2023-01-01T09:05:35.186Z,15.09
2023-01-01T09:08:03.000Z,15.11
2023-01-01T09:10:31.572Z,15.12
2023-01-01T09:12:59.401Z,15.16
2023-01-01T09:15:27.180Z,15.16
2023-01-01T09:17:55.001Z,15.15
2023-01-01T09:20:22.976Z,15.14
2023-01-01T09:22:52.403Z,15.14
2023-01-01T09:25:20.401Z,15.17
2023-01-01T09:27:49.608Z,15.18
2023-01-01T09:30:17.604Z,15.18
2023-01-01T09:32:45.404Z,15.20
2023-01-01T09:35:13.405Z,15.22
2023-01-01T09:37:41.359Z,15.22
2023-01-01T09:40:25.642Z,15.21
2023-01-01T09:43:02.132Z,15.23
2023-01-01T09:45:32.714Z,15.23
2023-01-01T09:48:07.239Z,15.23
2023-01-01T09:50:39.706Z,15.27
2023-01-01T09:53:13.811Z,15.25
2023-01-01T09:55:47.328Z,15.26
2023-01-01T09:58:15.206Z,15.23
2023-01-01T10:00:46.553Z,15.24
2023-01-01T10:03:32.520Z,15.20
2023-01-01T10:06:13.059Z,15.22
2023-01-01T10:08:52.547Z,15.21
2023-01-01T10:11:27.833Z,15.17
2023-01-01T10:13:58.931Z,15.19
2023-01-01T10:16:34.590Z,15.19
2023-01-01T10:19:12.576Z,15.16
2023-01-01T10:21:47.159Z,15.18
2023-01-01T10:24:32.676Z,15.13
2023-01-01T10:27:04.999Z,15.16
2023-01-01T10:29:41.639Z,15.17
2023-01-01T10:32:19.791Z,15.18
2023-01-01T10:34:48.285Z,15.21
2023-01-01T10:37:16.455Z,15.20
2023-01-01T10:39:46.276Z,15.21
2023-01-01T10:42:16.932Z,15.20
2023-01-01T10:44:44.995Z,15.22
2023-01-01T10:47:25.754Z,15.20
2023-01-01T10:49:58.851Z,15.20
2023-01-01T10:52:31.603Z,15.22
2023-01-01T10:55:01.031Z,15.26
2023-01-01T10:57:37.782Z,15.27
2023-01-01T11:00:24.223Z,15.26
2023-01-01T11:03:15.698Z,15.25
2023-01-01T11:06:05.229Z,15.28
2023-01-01T11:08:36.530Z,15.34
2023-01-01T11:11:05.346Z,15.31
2023-01-01T11:13:35.224Z,15.33
2023-01-01T11:16:12.554Z,15.30
2023-01-01T11:18:40.419Z,15.35
2023-01-01T11:21:09.026Z,15.40
2023-01-01T11:23:39.120Z,15.39
2023-01-01T11:26:20.150Z,15.40
2023-01-01T11:29:02.769Z,15.37
2023-01-01T11:31:35.275Z,15.42
2023-01-01T11:34:05.629Z,15.45
2023-01-01T11:36:35.967Z,15.47
2023-01-01T11:39:23.430Z,15.47
2023-01-01T11:41:53.772Z,15.49
2023-01-01T11:44:35.626Z,15.46
2023-01-01T11:47:05.460Z,15.52
2023-01-01T11:49:34.115Z,15.53
2023-01-01T11:52:02.150Z,15.61
2023-01-01T11:54:35.946Z,15.62
2023-01-01T11:57:08.680Z,15.66
2023-01-01T11:59:47.245Z,15.66
2023-01-01T12:02:26.270Z,15.68
2023-01-01T12:05:02.390Z,15.73
2023-01-01T12:07:35.472Z,15.76
2023-01-01T12:10:07.701Z,15.78
2023-01-01T12:12:39.951Z,15.82
2023-01-01T12:15:20.000Z,15.79
2023-01-01T12:17:55.367Z,15.82
2023-01-01T12:20:31.217Z,15.84
2023-01-01T12:23:00.610Z,15.84
2023-01-01T12:25:37.087Z,15.86
2023-01-01T12:28:16.488Z,15.86
2023-01-01T12:30:55.529Z,15.83
2023-01-01T12:33:43.159Z,15.85
2023-01-01T12:36:25.860Z,15.85
2023-01-01T12:39:41.002Z,15.85
2023-01-01T12:42:17.591Z,15.88
2023-01-01T12:44:58.984Z,15.87
2023-01-01T12:47:41.601Z,15.87
2023-01-01T12:50:18.125Z,15.90
2023-01-01T12:53:00.740Z,15.86
2023-01-01T12:56:09.420Z,15.87
2023-01-01T12:58:41.728Z,15.90
2023-01-01T13:01:14.146Z,15.94
2023-01-01T13:03:50.057Z,15.92
2023-01-01T13:06:24.892Z,15.87
2023-01-01T13:09:08.112Z,15.82
2023-01-01T13:11:44.578Z,15.81
2023-01-01T13:14:13.680Z,15.83
2023-01-01T13:16:43.375Z,15.81
2023-01-01T13:19:27.064Z,15.74
2023-01-01T13:21:55.189Z,15.75
2023-01-01T13:24:25.554Z,15.77
2023-01-01T13:26:54.945Z,15.75
2023-01-01T13:29:47.304Z,15.64
2023-01-01T13:32:16.247Z,15.69
2023-01-01T13:35:17.205Z,15.67
2023-01-01T13:37:46.819Z,15.68
2023-01-01T13:40:49.454Z,15.63
2023-01-01T13:43:35.204Z,15.60
2023-01-01T13:46:14.572Z,15.64
2023-01-01T13:49:01.482Z,15.60
2023-01-01T13:52:06.832Z,15.57
2023-01-01T13:55:09.183Z,15.58
2023-01-01T13:58:03.444Z,15.58
2023-01-01T14:00:37.032Z,15.55
2023-01-01T14:03:13.334Z,15.51
2023-01-01T14:05:46.395Z,15.49
2023-01-01T14:08:31.391Z,15.43
2023-01-01T14:11:03.437Z,15.45
2023-01-01T14:13:40.058Z,15.44
2023-01-01T14:16:13.591Z,15.43
2023-01-01T14:18:44.543Z,15.42
2023-01-01T14:21:15.699Z,15.37
2023-01-01T14:23:47.866Z,15.36
2023-01-01T14:26:19.053Z,15.35
2023-01-01T14:28:50.390Z,15.29
2023-01-01T14:31:21.161Z,15.36
2023-01-01T14:33:49.413Z,15.35
2023-01-01T14:36:21.760Z,15.34
2023-01-01T14:38:53.288Z,15.31
2023-01-01T14:41:30.682Z,15.29
2023-01-01T14:44:03.778Z,15.30
2023-01-01T14:46:32.585Z,15.31
2023-01-01T14:49:04.581Z,15.29
2023-01-01T14:51:33.276Z,15.32
2023-01-01T14:54:04.368Z,15.31
2023-01-01T14:56:34.844Z,15.33
2023-01-01T14:59:07.966Z,15.36
2023-01-01T15:01:35.999Z,15.37
2023-01-01T15:04:06.549Z,15.38
2023-01-01T15:06:34.705Z,15.37
2023-01-01T15:09:04.208Z,15.38
2023-01-01T15:11:32.741Z,15.36
2023-01-01T15:14:03.141Z,15.37
2023-01-01T15:16:39.673Z,15.37
2023-01-01T15:19:19.462Z,15.33
2023-01-01T15:21:47.645Z,15.35
2023-01-01T15:24:22.297Z,15.36
2023-01-01T15:26:53.088Z,15.35
2023-01-01T15:29:28.606Z,15.34
2023-01-01T15:32:00.053Z,15.32
2023-01-01T15:34:31.758Z,15.34
2023-01-01T15:37:11.477Z,15.30
2023-01-01T15:39:52.145Z,15.30
2023-01-01T15:42:24.698Z,15.31
2023-01-01T15:44:52.603Z,15.28
2023-01-01T15:47:26.542Z,15.27
2023-01-01T15:50:08.852Z,15.24
2023-01-01T15:52:39.694Z,15.26
2023-01-01T15:55:15.802Z,15.21
2023-01-01T15:57:46.585Z,15.23
2023-01-01T16:00:21.066Z,15.21
2023-01-01T16:02:50.443Z,15.19
2023-01-01T16:05:22.720Z,15.16
2023-01-01T16:07:59.309Z,15.10
2023-01-01T16:10:28.556Z,15.09
2023-01-01T16:12:56.487Z,15.08
2023-01-01T16:15:24.645Z,15.04
2023-01-01T16:17:52.969Z,15.06
2023-01-01T16:20:22.695Z,15.02
2023-01-01T16:22:50.778Z,14.98
2023-01-01T16:25:21.011Z,14.95
2023-01-01T16:27:50.385Z,14.90
2023-01-01T16:30:18.368Z,14.83
2023-01-01T16:32:46.461Z,14.82
2023-01-01T16:35:15.051Z,14.79
2023-01-01T16:37:43.007Z,14.78
2023-01-01T16:40:11.746Z,14.77
2023-01-01T16:42:39.555Z,14.76
2023-01-01T16:45:14.253Z,14.75
2023-01-01T16:47:42.109Z,14.69
2023-01-01T16:50:13.042Z,14.62
2023-01-01T16:52:44.692Z,14.52
2023-01-01T16:55:13.420Z,14.50
2023-01-01T16:57:41.408Z,14.46
2023-01-01T17:00:12.219Z,14.45
2023-01-01T17:02:40.278Z,14.41
2023-01-01T17:05:09.192Z,14.36
2023-01-01T17:07:37.016Z,14.29
2023-01-01T17:10:05.508Z,14.25
2023-01-01T17:12:33.542Z,14.22
2023-01-01T17:15:01.409Z,14.15
2023-01-01T17:17:30.641Z,14.10
2023-01-01T17:19:58.650Z,14.10
2023-01-01T17:22:30.695Z,14.05
2023-01-01T17:25:01.888Z,14.07
2023-01-01T17:27:29.742Z,14.07
2023-01-01T17:29:57.846Z,14.09
2023-01-01T17:32:25.683Z,14.10
2023-01-01T17:34:54.824Z,14.10
2023-01-01T17:37:22.778Z,14.03
2023-01-01T17:39:50.579Z,14.03
2023-01-01T17:42:18.449Z,13.98
2023-01-01T17:44:46.322Z,13.93
2023-01-01T17:47:14.193Z,13.87
2023-01-01T17:49:43.983Z,13.87
2023-01-01T17:52:13.315Z,13.85
2023-01-01T17:54:41.129Z,13.86
2023-01-01T17:57:08.984Z,13.86
2023-01-01T17:59:36.854Z,13.85
2023-01-01T18:02:05.926Z,13.85
2023-01-01T18:04:34.179Z,13.81
2023-01-01T18:07:06.307Z,13.78
2023-01-01T18:09:38.154Z,13.80
2023-01-01T18:12:06.931Z,13.77
2023-01-01T18:14:34.898Z,13.82
2023-01-01T18:17:02.788Z,13.85
2023-01-01T18:19:32.289Z,13.88
2023-01-01T18:22:00.235Z,13.88
2023-01-01T18:24:28.205Z,13.87
2023-01-01T18:26:57.518Z,13.87
2023-01-01T18:29:25.670Z,13.88
2023-01-01T18:31:53.505Z,13.90
2023-01-01T18:34:21.484Z,13.95
2023-01-01T18:36:49.446Z,13.96
2023-01-01T18:39:22.060Z,13.93
2023-01-01T18:42:29.468Z,13.90
2023-01-01T18:45:03.518Z,13.89
2023-01-01T18:47:32.390Z,13.89
2023-01-01T18:50:15.461Z,13.89
2023-01-01T18:52:43.348Z,13.93
2023-01-01T18:55:16.649Z,13.94
2023-01-01T18:57:49.337Z,13.95
2023-01-01T19:00:22.483Z,13.97
2023-01-01T19:02:56.629Z,13.96
2023-01-01T19:05:27.429Z,13.97
2023-01-01T19:08:03.052Z,13.97
2023-01-01T19:10:37.053Z,13.96
2023-01-01T19:13:24.160Z,13.93
2023-01-01T19:15:55.450Z,13.92
2023-01-01T19:18:24.921Z,13.88
2023-01-01T19:20:59.381Z,13.83
2023-01-01T19:23:27.322Z,13.82
2023-01-01T19:26:03.193Z,13.80
2023-01-01T19:28:39.905Z,13.74
2023-01-01T19:31:08.365Z,13.73
2023-01-01T19:33:36.176Z,13.66
2023-01-01T19:36:04.005Z,13.59
2023-01-01T19:38:31.787Z,13.59
2023-01-01T19:40:59.891Z,13.58
2023-01-01T19:43:27.741Z,13.57
2023-01-01T19:45:57.144Z,13.55
2023-01-01T19:48:25.337Z,13.53
2023-01-01T19:50:53.384Z,13.46
2023-01-01T19:53:21.202Z,13.44
2023-01-01T19:55:49.255Z,13.44
2023-01-01T19:58:19.708Z,13.42
2023-01-01T20:00:47.767Z,13.45
2023-01-01T20:06:05.465Z,13.46
2023-01-01T20:08:33.414Z,13.47
2023-01-01T20:11:02.243Z,13.46
2023-01-01T20:13:32.085Z,13.45
2023-01-01T20:16:05.819Z,13.45
2023-01-01T20:18:35.175Z,13.44
2023-01-01T20:21:25.578Z,13.43
2023-01-01T20:23:54.261Z,13.43
2023-01-01T20:26:23.815Z,13.42
2023-01-01T20:29:09.324Z,13.44
2023-01-01T20:31:53.928Z,13.46
2023-01-01T20:34:24.223Z,13.44
2023-01-01T20:37:09.793Z,13.42
2023-01-01T20:39:40.499Z,13.41
2023-01-01T20:42:08.268Z,13.41
2023-01-01T20:44:36.839Z,13.40
2023-01-01T20:47:04.673Z,13.38
2023-01-01T20:49:33.869Z,13.39
2023-01-01T20:52:01.718Z,13.42
2023-01-01T20:54:29.789Z,13.44
2023-01-01T20:56:57.673Z,13.47
2023-01-01T20:59:35.383Z,13.52
2023-01-01T21:02:04.926Z,13.53
2023-01-01T21:04:38.718Z,13.54
2023-01-01T21:07:08.238Z,13.55
2023-01-01T21:09:36.566Z,13.56
2023-01-01T21:12:04.911Z,13.56
2023-01-01T21:14:32.994Z,13.57
2023-01-01T21:17:01.997Z,13.57
2023-01-01T21:19:30.010Z,13.58
2023-01-01T21:21:59.554Z,13.57
2023-01-01T21:24:29.147Z,13.56
2023-01-01T21:27:03.926Z,13.57
2023-01-01T21:29:33.692Z,13.61
2023-01-01T21:32:15.317Z,13.64
2023-01-01T21:34:44.563Z,13.69
2023-01-01T21:37:41.864Z,13.71
2023-01-01T21:40:41.372Z,13.71
2023-01-01T21:43:25.273Z,13.72
2023-01-01T21:45:53.801Z,13.77
2023-01-01T21:48:28.490Z,13.76
2023-01-01T21:50:56.956Z,13.78
2023-01-01T21:53:30.157Z,13.77
2023-01-01T21:55:58.710Z,13.77
2023-01-01T21:58:48.321Z,13.73
2023-01-01T22:01:22.223Z,13.68
2023-01-01T22:03:54.920Z,13.64
2023-01-01T22:06:22.777Z,13.64
2023-01-01T22:08:51.969Z,13.63
2023-01-01T22:11:26.883Z,13.62
2023-01-01T22:13:55.561Z,13.63
2023-01-01T22:16:29.292Z,13.62
2023-01-01T22:18:57.405Z,13.65
2023-01-01T22:21:25.260Z,13.66
2023-01-01T22:23:57.774Z,13.66
2023-01-01T22:26:28.655Z,13.61
2023-01-01T22:29:00.885Z,13.61
2023-01-01T22:31:32.163Z,13.61
2023-01-01T22:34:03.455Z,13.61
2023-01-01T22:36:35.160Z,13.64
2023-01-01T22:39:12.400Z,13.61
2023-01-01T22:41:40.626Z,13.62
2023-01-01T22:44:08.676Z,13.63
2023-01-01T22:46:38.841Z,13.64
2023-01-01T22:49:19.778Z,13.66
2023-01-01T22:51:48.500Z,13.66
2023-01-01T22:54:17.755Z,13.66
2023-01-01T22:56:45.557Z,13.66
2023-01-01T22:59:13.486Z,13.67
2023-01-01T23:01:41.548Z,13.68
2023-01-01T23:04:09.525Z,13.68
2023-01-01T23:06:37.434Z,13.69
2023-01-01T23:09:06.871Z,13.69
2023-01-01T23:11:36.066Z,13.72
2023-01-01T23:14:21.456Z,13.74
2023-01-01T23:16:50.837Z,13.75
2023-01-01T23:19:18.665Z,13.78
2023-01-01T23:21:46.786Z,13.80
2023-01-01T23:24:18.137Z,13.79
2023-01-01T23:26:48.814Z,13.81
2023-01-01T23:29:18.325Z,13.83
2023-01-01T23:31:47.113Z,13.83
2023-01-01T23:34:15.651Z,13.84
2023-01-01T23:36:44.867Z,13.84
2023-01-01T23:39:12.733Z,13.85
2023-01-01T23:41:40.755Z,13.91
2023-01-01T23:44:10.004Z,13.93
2023-01-01T23:46:39.872Z,14.00
2023-01-01T23:49:08.388Z,14.03
2023-01-01T23:51:37.101Z,14.09
2023-01-01T23:54:04.987Z,14.09
2023-01-01T23:56:32.856Z,14.11
2023-01-01T23:59:00.824Z,14.14
